Winfield, AL (35594)

10:57 AM CST on February 14, 2016 (GMT -0600)
Bevill State | | Change Station
CLOSE
Current Station
Personal Weather Station
Location: Fayette, AL
Elevation: 423 ft
Nearby Weather Stations

Elev 423 ft 33.73 °N, 87.82 °W | Updated 27 minutes ago

Mostly Cloudy
Mostly Cloudy
37.4 °F
Feels Like 30 °F
N
10.0
Wind Variable Wind from SE
Gusts 10.0 mph

Today
High -- | Low -- °F
--% Chance of Precip.
Yesterday
High -- | Low -- °F
Precip. -- in
Pressure 30.29 in
Visibility 10.0 miles
Clouds Mostly Cloudy 3900 ft
Mostly Cloudy 9000 ft
Windchill 30 °F
Dew Point 17 °F
Humidity 43%
Rainfall 0.00 in
Snow Depth Not available.
6:37 AM 5:34 PM
Waxing Crescent, 43% visible
METAR K1M4 141656Z AUTO 17011G15KT 10SM BKN039 BKN090 05/M12 A3021 RMK AO2 SLP255 T00501122
Pressure 30.29 in
Visibility 10.0 miles
Clouds Mostly Cloudy 3900 ft
Mostly Cloudy 9000 ft
Windchill 30 °F
Dew Point 17 °F
Humidity 43%
Rainfall 0.00 in
Snow Depth Not available.
6:37 AM 5:34 PM
Waxing Crescent, 43% visible
METAR K1M4 141656Z AUTO 17011G15KT 10SM BKN039 BKN090 05/M12 A3021 RMK AO2 SLP255 T00501122

10-Day Weather Forecast

Almanac

Astronomy

Feb. 14, 2016 Rise Set
Actual Time
Civil Twilight
Nautical Twilight
Astronomical Twilight
Moon
Length of Visible Light
Length of Day
Tomorrow will be .
, % of the Moon is Illuminated

Today's Extremes

State Highs State Lows

Community

WunderPhotos

Upload Photos

1,892,837 photos uploaded!

WunderBlog® & News

Nearby

Air Quality

  Air Quality AQ Index Pollutant
Not available.

Snow Depth

Station Depth Elevation

Earthquake Activity

City Distance Mag. Time & Date
Minimum magnitude displayed is 2.5.

Coastal Water Temperatures

Place Temperature

Stations

Nearby Weather Stations

Station Location Temp. Windchill Dew Point Humidity Wind Precip. Elev Updated Type
                   

Watches & Warnings

There are currently no watches in effect.